createdAt,value
2023-04-16T00:00:15.446Z,62.82
2023-04-16T00:01:15.612Z,62.63
2023-04-16T00:02:15.918Z,63.13
2023-04-16T00:03:16.234Z,62.94
2023-04-16T00:04:16.421Z,62.44
2023-04-16T00:05:16.498Z,62.82
2023-04-16T00:06:16.694Z,62.69
2023-04-16T00:07:16.898Z,62.97
2023-04-16T00:08:17.103Z,62.80
2023-04-16T00:09:17.289Z,62.70
2023-04-16T00:10:17.479Z,62.61
2023-04-16T00:11:17.765Z,62.95
2023-04-16T00:12:18.026Z,62.79
2023-04-16T00:13:18.184Z,62.73
2023-04-16T00:14:18.356Z,62.57
2023-04-16T00:15:18.556Z,62.68
2023-04-16T00:16:18.819Z,62.65
2023-04-16T00:17:18.975Z,62.61
2023-04-16T00:18:19.193Z,62.43
2023-04-16T00:19:19.419Z,62.23
2023-04-16T00:20:19.600Z,62.04
2023-04-16T00:21:19.770Z,62.87
2023-04-16T00:22:20.014Z,62.62
2023-04-16T00:23:20.254Z,62.86
2023-04-16T00:24:20.478Z,63.21
2023-04-16T00:25:20.718Z,63.00
2023-04-16T00:26:20.944Z,63.52
2023-04-16T00:27:21.137Z,63.39
2023-04-16T00:28:21.361Z,63.54
2023-04-16T00:29:21.588Z,63.43
2023-04-16T00:30:21.830Z,63.62
2023-04-16T00:31:22.083Z,63.45
2023-04-16T00:32:22.273Z,63.49
2023-04-16T00:33:22.452Z,63.91
2023-04-16T00:34:22.686Z,63.70
2023-04-16T00:35:22.860Z,63.69
2023-04-16T00:36:23.024Z,63.76
2023-04-16T00:37:23.255Z,63.69
2023-04-16T00:38:23.426Z,63.63
2023-04-16T00:39:23.697Z,63.36
2023-04-16T00:40:23.846Z,62.97
2023-04-16T00:41:24.068Z,63.15
2023-04-16T00:42:24.286Z,63.53
2023-04-16T00:43:24.439Z,63.47
2023-04-16T00:44:24.598Z,63.37
2023-04-16T00:45:24.835Z,63.38
2023-04-16T00:46:25.049Z,63.46
2023-04-16T00:47:25.198Z,63.89
2023-04-16T00:48:25.426Z,63.96
2023-04-16T00:49:25.617Z,63.90
2023-04-16T00:50:25.795Z,63.89
2023-04-16T00:51:25.982Z,63.85
2023-04-16T00:52:26.156Z,63.80
2023-04-16T00:53:26.333Z,63.88
2023-04-16T00:54:26.499Z,63.98
2023-04-16T00:55:26.753Z,64.21
2023-04-16T00:56:26.938Z,64.01
2023-04-16T00:57:27.118Z,63.87
2023-04-16T00:58:27.296Z,63.75
2023-04-16T00:59:27.522Z,64.16
2023-04-16T01:00:27.687Z,63.95
2023-04-16T01:01:27.856Z,63.86
2023-04-16T01:02:28.141Z,63.26
2023-04-16T01:03:28.485Z,63.67
2023-04-16T01:04:28.483Z,63.68
2023-04-16T01:05:28.659Z,63.62
2023-04-16T01:06:28.824Z,63.13
2023-04-16T01:07:29.020Z,63.09
2023-04-16T01:08:29.225Z,62.89
2023-04-16T01:09:29.434Z,62.99
2023-04-16T01:10:29.625Z,63.19
2023-04-16T01:11:29.828Z,63.29
2023-04-16T01:12:30.009Z,62.95
2023-04-16T01:13:30.201Z,63.04
2023-04-16T01:14:30.399Z,63.11
2023-04-16T01:15:30.597Z,62.86
2023-04-16T01:16:30.846Z,62.82
2023-04-16T01:17:31.037Z,63.03
2023-04-16T01:18:31.077Z,62.85
2023-04-16T01:19:31.331Z,63.14
2023-04-16T01:20:31.478Z,62.98
2023-04-16T01:21:31.640Z,63.07
2023-04-16T01:22:31.830Z,63.07
2023-04-16T01:23:32.037Z,63.26
2023-04-16T01:24:32.323Z,63.00
2023-04-16T01:25:32.512Z,62.94
2023-04-16T01:26:32.752Z,62.98
2023-04-16T01:27:33.019Z,63.27
2023-04-16T01:28:33.226Z,62.99
2023-04-16T01:29:33.394Z,63.55
2023-04-16T01:30:33.636Z,63.92
2023-04-16T01:31:33.917Z,63.50
2023-04-16T01:32:34.137Z,63.43
2023-04-16T01:33:34.350Z,63.93
2023-04-16T01:34:34.550Z,63.57
2023-04-16T01:35:34.732Z,63.76
2023-04-16T01:36:34.973Z,63.73
2023-04-16T01:37:35.188Z,63.76
2023-04-16T01:38:35.473Z,63.88
2023-04-16T01:39:35.707Z,63.72
2023-04-16T01:40:35.869Z,63.74
2023-04-16T01:41:36.102Z,63.84
2023-04-16T01:42:36.275Z,63.71
2023-04-16T01:43:38.473Z,63.72
2023-04-16T01:44:36.479Z,63.68
2023-04-16T01:45:36.453Z,63.66
2023-04-16T01:46:36.440Z,63.60
2023-04-16T01:47:36.400Z,63.58
2023-04-16T01:48:36.343Z,63.65
2023-04-16T01:49:36.298Z,63.88
2023-04-16T01:50:36.269Z,64.06
2023-04-16T01:51:36.220Z,63.83
2023-04-16T01:52:36.190Z,63.38
2023-04-16T01:53:37.226Z,63.38
2023-04-16T01:54:36.120Z,63.79
2023-04-16T01:55:36.106Z,63.66
2023-04-16T01:56:36.050Z,63.60
2023-04-16T01:57:36.015Z,63.61
2023-04-16T01:58:35.972Z,63.63
2023-04-16T01:59:35.942Z,63.90
2023-04-16T02:00:35.952Z,63.54
2023-04-16T02:01:35.883Z,63.62
2023-04-16T02:02:35.936Z,64.05
2023-04-16T02:03:35.979Z,64.12
2023-04-16T02:04:35.803Z,64.36
2023-04-16T02:05:35.781Z,64.21
2023-04-16T02:06:35.730Z,64.21
2023-04-16T02:07:35.700Z,64.28
2023-04-16T02:08:35.778Z,64.37
2023-04-16T02:09:35.745Z,64.28
2023-04-16T02:10:35.733Z,64.17
2023-04-16T02:11:35.682Z,64.22
2023-04-16T02:12:35.645Z,64.12
2023-04-16T02:13:35.606Z,64.05
2023-04-16T02:14:35.588Z,64.09
2023-04-16T02:15:35.536Z,63.98
2023-04-16T02:16:35.552Z,63.57
2023-04-16T02:17:35.500Z,63.43
2023-04-16T02:18:35.440Z,63.17
2023-04-16T02:19:35.408Z,62.93
2023-04-16T02:20:35.423Z,63.71
2023-04-16T02:21:35.393Z,63.88
2023-04-16T02:22:35.365Z,63.77
2023-04-16T02:23:35.322Z,63.87
2023-04-16T02:24:35.286Z,64.04
2023-04-16T02:25:35.253Z,64.17
2023-04-16T02:26:35.215Z,64.39
2023-04-16T02:27:35.190Z,64.41
2023-04-16T02:28:35.158Z,64.56
2023-04-16T02:29:35.124Z,64.48
2023-04-16T02:30:35.076Z,64.26
2023-04-16T02:31:35.090Z,64.14
2023-04-16T02:32:35.016Z,64.13
2023-04-16T02:33:34.977Z,63.88
2023-04-16T02:34:34.940Z,63.91
2023-04-16T02:35:34.912Z,64.03
2023-04-16T02:36:34.874Z,63.95
2023-04-16T02:37:34.843Z,64.08
2023-04-16T02:38:34.811Z,64.10
2023-04-16T02:39:34.777Z,64.53
2023-04-16T02:40:34.747Z,64.36
2023-04-16T02:41:34.706Z,64.30
2023-04-16T02:42:34.665Z,64.39
2023-04-16T02:43:34.623Z,64.47
2023-04-16T02:44:34.594Z,64.34
2023-04-16T02:45:34.579Z,64.45
2023-04-16T02:46:34.511Z,64.23
2023-04-16T02:47:34.527Z,64.48
2023-04-16T02:48:34.433Z,64.39
2023-04-16T02:49:34.422Z,64.41
2023-04-16T02:50:34.393Z,64.31
2023-04-16T02:51:34.413Z,64.57
2023-04-16T02:52:34.433Z,64.57
2023-04-16T02:53:34.446Z,64.65
2023-04-16T02:54:34.463Z,65.05
2023-04-16T02:55:34.448Z,65.42
2023-04-16T02:56:34.446Z,65.09
2023-04-16T02:57:34.417Z,65.07
2023-04-16T02:58:34.387Z,64.64
2023-04-16T02:59:34.376Z,64.72
2023-04-16T03:00:34.335Z,64.60
2023-04-16T03:01:34.364Z,64.57
2023-04-16T03:02:34.384Z,64.43
2023-04-16T03:03:34.310Z,64.84
2023-04-16T03:04:34.391Z,64.71
2023-04-16T03:05:34.328Z,64.54
2023-04-16T03:06:34.393Z,64.65
2023-04-16T03:07:34.555Z,64.44
2023-04-16T03:08:34.730Z,64.57
2023-04-16T03:09:34.974Z,64.71
2023-04-16T03:10:35.186Z,64.54
2023-04-16T03:11:35.392Z,64.37
2023-04-16T03:12:35.564Z,64.82
2023-04-16T03:13:35.716Z,64.75
2023-04-16T03:14:35.960Z,64.85
2023-04-16T03:15:36.226Z,64.94
2023-04-16T03:16:36.367Z,64.71
2023-04-16T03:17:36.614Z,64.63
2023-04-16T03:18:36.755Z,64.61
2023-04-16T03:19:36.999Z,64.41
2023-04-16T03:20:37.150Z,64.38
2023-04-16T03:21:37.325Z,64.49
2023-04-16T03:22:37.517Z,64.79
2023-04-16T03:23:37.778Z,65.16
2023-04-16T03:24:37.961Z,65.05
2023-04-16T03:25:38.132Z,64.82
2023-04-16T03:26:38.330Z,64.61
2023-04-16T03:27:38.523Z,64.68
2023-04-16T03:28:38.715Z,64.82
2023-04-16T03:29:38.939Z,64.83
2023-04-16T03:30:39.188Z,64.77
2023-04-16T03:31:39.410Z,64.64
2023-04-16T03:32:39.616Z,64.68
2023-04-16T03:33:39.791Z,64.54
2023-04-16T03:34:39.973Z,64.62
2023-04-16T03:35:40.167Z,64.46
2023-04-16T03:36:40.350Z,64.40
2023-04-16T03:37:40.616Z,64.15
2023-04-16T03:38:40.796Z,64.43
2023-04-16T03:39:41.010Z,64.51
2023-04-16T03:40:41.162Z,64.46
2023-04-16T03:41:41.485Z,64.36
2023-04-16T03:42:41.625Z,64.34
2023-04-16T03:43:41.797Z,64.09
2023-04-16T03:44:41.954Z,64.16
2023-04-16T03:45:42.141Z,64.36
2023-04-16T03:46:42.350Z,64.20
2023-04-16T03:47:42.547Z,64.33
2023-04-16T03:48:42.700Z,64.66
2023-04-16T03:49:42.900Z,64.49
2023-04-16T03:50:43.146Z,64.66
2023-04-16T03:51:43.307Z,64.63
2023-04-16T03:52:43.525Z,64.99
2023-04-16T03:53:43.696Z,65.02
2023-04-16T03:54:43.959Z,64.87
2023-04-16T03:55:44.126Z,64.86
2023-04-16T03:56:44.380Z,64.78
2023-04-16T03:57:44.553Z,64.91
2023-04-16T03:58:44.745Z,64.73
2023-04-16T03:59:44.921Z,64.84
2023-04-16T04:00:45.097Z,64.65
2023-04-16T04:01:45.258Z,64.70
2023-04-16T04:02:45.532Z,64.74
2023-04-16T04:03:45.893Z,64.88
2023-04-16T04:04:46.021Z,65.11
2023-04-16T04:05:46.042Z,65.01
2023-04-16T04:06:46.214Z,65.45
2023-04-16T04:07:46.391Z,65.60
2023-04-16T04:08:46.647Z,65.59
2023-04-16T04:09:46.847Z,65.44
2023-04-16T04:10:47.009Z,65.21
2023-04-16T04:11:47.223Z,65.09
2023-04-16T04:12:47.371Z,65.17
2023-04-16T04:13:47.525Z,65.00
2023-04-16T04:14:47.732Z,64.90
2023-04-16T04:15:48.011Z,64.80
2023-04-16T04:16:48.227Z,64.88
2023-04-16T04:17:48.434Z,65.01
2023-04-16T04:18:48.597Z,65.13
2023-04-16T04:20:00.533Z,65.15
2023-04-16T04:20:49.743Z,65.33
2023-04-16T04:21:48.709Z,65.35
2023-04-16T04:22:48.664Z,65.22
2023-04-16T04:23:48.650Z,65.25
2023-04-16T04:24:48.610Z,65.47
2023-04-16T04:25:48.613Z,65.52
2023-04-16T04:26:48.544Z,65.41
2023-04-16T04:27:48.526Z,65.35
2023-04-16T04:28:48.505Z,65.33
2023-04-16T04:29:48.518Z,65.23
2023-04-16T04:30:48.570Z,65.16
2023-04-16T04:31:48.638Z,64.97
2023-04-16T04:32:48.661Z,65.03
2023-04-16T04:33:48.672Z,64.96
2023-04-16T04:34:48.723Z,65.02
2023-04-16T04:35:48.757Z,65.00
2023-04-16T04:36:48.779Z,65.00
2023-04-16T04:37:48.837Z,65.18
2023-04-16T04:38:48.868Z,65.12
2023-04-16T04:39:48.915Z,65.21
2023-04-16T04:40:48.974Z,65.06
2023-04-16T04:41:48.983Z,64.99
2023-04-16T04:42:49.009Z,64.98
2023-04-16T04:43:49.086Z,65.22
2023-04-16T04:44:49.074Z,65.14
2023-04-16T04:45:49.325Z,65.29
2023-04-16T04:46:49.121Z,65.19
2023-04-16T04:47:49.192Z,65.14
2023-04-16T04:48:49.147Z,64.85
2023-04-16T04:49:49.320Z,65.13
2023-04-16T04:50:49.614Z,65.05
2023-04-16T04:51:50.267Z,64.99
2023-04-16T04:52:49.750Z,65.28
2023-04-16T04:53:49.759Z,65.47
2023-04-16T04:54:49.754Z,65.39
2023-04-16T04:55:53.167Z,65.27
2023-04-16T04:56:50.745Z,65.36
2023-04-16T04:57:49.705Z,65.32
2023-04-16T04:58:49.684Z,65.31
2023-04-16T04:59:49.641Z,65.39
2023-04-16T05:00:49.628Z,65.18
2023-04-16T05:01:49.596Z,65.06
2023-04-16T05:02:49.693Z,65.15
2023-04-16T05:03:49.593Z,65.12
2023-04-16T05:04:49.501Z,65.02
2023-04-16T05:05:49.457Z,65.34
2023-04-16T05:06:49.471Z,65.37
2023-04-16T05:07:49.488Z,65.38
2023-04-16T05:08:49.494Z,65.40
2023-04-16T05:09:49.497Z,65.28
2023-04-16T05:10:49.501Z,65.43
2023-04-16T05:11:49.498Z,65.51
2023-04-16T05:12:49.545Z,65.39
2023-04-16T05:13:49.536Z,65.15
2023-04-16T05:14:49.559Z,65.28
2023-04-16T05:15:49.564Z,65.55
2023-04-16T05:16:49.597Z,65.73
2023-04-16T05:17:49.661Z,65.60
2023-04-16T05:18:49.585Z,65.51
2023-04-16T05:19:49.606Z,65.50
2023-04-16T05:20:49.625Z,65.32
2023-04-16T05:21:49.624Z,65.52
2023-04-16T05:22:49.637Z,65.55
2023-04-16T05:23:49.661Z,65.66
2023-04-16T05:24:49.653Z,65.99
2023-04-16T05:25:49.798Z,65.91
2023-04-16T05:26:50.099Z,65.69
2023-04-16T05:27:50.325Z,65.70
2023-04-16T05:28:50.515Z,65.56
2023-04-16T05:29:50.765Z,65.42
2023-04-16T05:30:51.083Z,65.56
2023-04-16T05:31:51.232Z,65.21
2023-04-16T05:32:51.546Z,64.92
2023-04-16T05:33:51.695Z,65.10
2023-04-16T05:34:51.864Z,64.89
2023-04-16T05:35:52.134Z,64.95
2023-04-16T05:36:52.289Z,64.83
2023-04-16T05:37:52.490Z,65.01
2023-04-16T05:38:52.661Z,64.63
2023-04-16T05:39:52.876Z,64.58
2023-04-16T05:40:53.054Z,65.02
2023-04-16T05:41:53.257Z,65.02
2023-04-16T05:42:53.437Z,65.28
2023-04-16T05:43:53.624Z,65.60
2023-04-16T05:44:53.828Z,65.20
2023-04-16T05:45:54.063Z,65.02
2023-04-16T05:46:54.208Z,64.84
2023-04-16T05:47:54.397Z,64.88
2023-04-16T05:48:54.628Z,64.90
2023-04-16T05:49:54.806Z,64.95
2023-04-16T05:50:55.093Z,64.86
2023-04-16T05:51:55.268Z,64.80
2023-04-16T05:52:55.472Z,65.05
2023-04-16T05:53:55.680Z,65.32
2023-04-16T05:54:55.884Z,65.37
2023-04-16T05:55:56.066Z,65.46
2023-04-16T05:56:56.255Z,65.25
2023-04-16T05:57:56.447Z,65.24
2023-04-16T05:58:56.649Z,65.23
2023-04-16T05:59:56.838Z,65.25
2023-04-16T06:00:57.048Z,65.26
2023-04-16T06:01:57.230Z,65.27
2023-04-16T06:02:57.569Z,65.28
2023-04-16T06:03:57.809Z,65.19
2023-04-16T06:04:57.905Z,65.16
2023-04-16T06:05:58.273Z,65.24
2023-04-16T06:06:58.275Z,65.10
2023-04-16T06:07:58.516Z,65.21
2023-04-16T06:08:58.693Z,65.26
2023-04-16T06:09:58.883Z,65.24
2023-04-16T06:10:59.034Z,65.10
2023-04-16T06:11:59.289Z,64.77
2023-04-16T06:12:59.508Z,64.28
2023-04-16T06:13:59.734Z,64.19
2023-04-16T06:14:59.898Z,64.43
2023-04-16T06:16:00.128Z,64.37
2023-04-16T06:17:00.297Z,64.42
2023-04-16T06:18:01.047Z,64.73
2023-04-16T06:19:00.528Z,65.16
2023-04-16T06:20:00.551Z,65.16
2023-04-16T06:21:00.571Z,65.28
2023-04-16T06:22:00.613Z,65.41
2023-04-16T06:23:00.649Z,65.52
2023-04-16T06:24:00.671Z,65.28
2023-04-16T06:25:00.727Z,65.57
2023-04-16T06:26:00.729Z,65.30
2023-04-16T06:27:00.760Z,65.34
2023-04-16T06:28:00.803Z,65.10
2023-04-16T06:29:00.825Z,64.93
2023-04-16T06:30:01.092Z,65.08
2023-04-16T06:31:00.866Z,64.27
2023-04-16T06:32:00.878Z,64.58
2023-04-16T06:33:00.912Z,64.82
2023-04-16T06:34:00.931Z,64.71
2023-04-16T06:35:01.000Z,64.51
2023-04-16T06:36:00.992Z,64.94
2023-04-16T06:37:01.011Z,65.16
2023-04-16T06:38:01.032Z,65.21
2023-04-16T06:39:01.061Z,65.29
2023-04-16T06:40:01.091Z,65.23
2023-04-16T06:41:01.112Z,65.29
2023-04-16T06:42:01.137Z,65.37
2023-04-16T06:43:01.166Z,65.32
2023-04-16T06:44:01.199Z,65.40
2023-04-16T06:45:02.157Z,65.46
2023-04-16T06:46:01.111Z,65.42
2023-04-16T06:47:01.095Z,65.45
2023-04-16T06:48:01.348Z,65.43
2023-04-16T06:49:01.482Z,65.30
2023-04-16T06:50:01.686Z,65.36
2023-04-16T06:51:01.921Z,65.47
2023-04-16T06:52:03.878Z,65.57
2023-04-16T06:53:02.013Z,65.50
2023-04-16T06:54:01.963Z,65.48
2023-04-16T06:55:02.020Z,65.41
2023-04-16T06:56:01.878Z,65.20
2023-04-16T06:57:01.862Z,65.04
2023-04-16T06:58:01.827Z,65.26
2023-04-16T06:59:01.749Z,65.25
2023-04-16T07:00:01.713Z,65.21
2023-04-16T07:01:01.782Z,65.33
2023-04-16T07:02:02.009Z,65.14
2023-04-16T07:03:02.043Z,65.01
2023-04-16T07:04:01.735Z,64.96
2023-04-16T07:05:01.581Z,64.96
2023-04-16T07:06:01.654Z,64.95
2023-04-16T07:07:01.496Z,64.90
2023-04-16T07:08:01.446Z,64.89
2023-04-16T07:09:01.415Z,64.63
2023-04-16T07:10:01.430Z,64.63
2023-04-16T07:11:01.644Z,64.76
2023-04-16T07:12:01.865Z,64.55
2023-04-16T07:13:01.965Z,64.77
2023-04-16T07:14:02.219Z,64.76
2023-04-16T07:15:02.432Z,64.55
2023-04-16T07:16:02.615Z,64.67
2023-04-16T07:17:02.771Z,64.77
2023-04-16T07:18:02.976Z,64.80
2023-04-16T07:19:03.149Z,64.55
2023-04-16T07:20:03.297Z,64.52
2023-04-16T07:21:03.516Z,64.38
2023-04-16T07:22:03.719Z,64.27
2023-04-16T07:23:03.918Z,64.40
2023-04-16T07:24:04.081Z,64.65
2023-04-16T07:25:04.301Z,64.71
2023-04-16T07:26:04.530Z,64.64
2023-04-16T07:27:04.720Z,64.78
2023-04-16T07:28:04.937Z,64.93
2023-04-16T07:29:05.163Z,64.85
2023-04-16T07:30:05.308Z,64.87
2023-04-16T07:31:05.547Z,64.73
2023-04-16T07:32:05.723Z,64.82
2023-04-16T07:33:05.937Z,64.76
2023-04-16T07:34:06.107Z,64.96
2023-04-16T07:35:06.326Z,65.38
2023-04-16T07:36:06.521Z,65.43
2023-04-16T07:37:06.726Z,65.75
2023-04-16T07:38:06.945Z,65.98
2023-04-16T07:39:07.139Z,65.76
2023-04-16T07:40:07.348Z,65.31
2023-04-16T07:41:07.492Z,64.71
2023-04-16T07:42:07.708Z,64.63
2023-04-16T07:43:07.866Z,64.65
2023-04-16T07:44:08.090Z,64.80
2023-04-16T07:45:08.284Z,65.10
2023-04-16T07:46:08.590Z,65.40
2023-04-16T07:47:08.708Z,65.37
2023-04-16T07:48:08.880Z,65.77
2023-04-16T07:49:09.245Z,65.72
2023-04-16T07:50:09.375Z,65.83
2023-04-16T07:51:09.557Z,65.26
2023-04-16T07:52:09.720Z,65.05
2023-04-16T07:53:09.965Z,65.12
2023-04-16T07:54:10.130Z,64.68
2023-04-16T07:55:10.332Z,64.82
2023-04-16T07:56:10.545Z,65.57
2023-04-16T07:57:10.755Z,66.05
2023-04-16T07:58:10.952Z,66.12
2023-04-16T08:00:11.161Z,65.94
2023-04-16T08:01:11.102Z,65.82
2023-04-16T08:02:11.113Z,65.47
2023-04-16T08:03:11.209Z,65.40
2023-04-16T08:04:11.083Z,65.15
2023-04-16T08:05:11.021Z,65.15
2023-04-16T08:06:10.900Z,65.38
2023-04-16T08:07:10.844Z,65.33
2023-04-16T08:08:10.803Z,65.21
2023-04-16T08:09:10.948Z,65.26
2023-04-16T08:10:10.687Z,65.33
2023-04-16T08:11:10.650Z,65.18
2023-04-16T08:12:10.593Z,64.91
2023-04-16T08:13:10.553Z,64.72
2023-04-16T08:14:10.505Z,64.75
2023-04-16T08:15:10.535Z,64.47
2023-04-16T08:16:10.513Z,64.35
2023-04-16T08:17:10.420Z,64.15
2023-04-16T08:18:10.388Z,64.07
2023-04-16T08:19:10.695Z,64.10
2023-04-16T08:20:13.027Z,63.92
2023-04-16T08:21:10.258Z,63.97
2023-04-16T08:22:10.208Z,64.13
2023-04-16T08:23:10.172Z,64.18
2023-04-16T08:24:10.153Z,63.92
2023-04-16T08:25:10.118Z,63.98
2023-04-16T08:26:10.081Z,63.74
2023-04-16T08:27:18.429Z,64.05
2023-04-16T08:28:10.969Z,63.98
2023-04-16T08:29:10.119Z,64.19
2023-04-16T08:30:09.858Z,63.97
2023-04-16T08:31:09.819Z,64.19
2023-04-16T08:32:09.843Z,64.40
2023-04-16T08:33:09.795Z,64.58
2023-04-16T08:34:09.742Z,64.46
2023-04-16T08:35:09.679Z,64.10
2023-04-16T08:36:09.630Z,63.79
2023-04-16T08:37:09.621Z,63.66
2023-04-16T08:38:09.530Z,63.08
2023-04-16T08:39:09.799Z,62.59
2023-04-16T08:40:09.420Z,63.25
2023-04-16T08:41:09.367Z,62.49
2023-04-16T08:42:09.324Z,62.73
2023-04-16T08:43:09.291Z,62.53
2023-04-16T08:44:09.239Z,62.18
2023-04-16T08:45:09.202Z,62.96
2023-04-16T08:46:09.176Z,63.26
2023-04-16T08:47:09.138Z,63.43
2023-04-16T08:48:09.056Z,63.36
2023-04-16T08:49:09.350Z,63.02
2023-04-16T08:50:08.962Z,62.61
2023-04-16T08:51:08.918Z,62.50
2023-04-16T08:52:08.864Z,62.68
2023-04-16T08:53:08.823Z,62.65
2023-04-16T08:54:08.821Z,62.48
2023-04-16T08:55:08.775Z,62.41
2023-04-16T08:56:08.830Z,62.38
2023-04-16T08:57:09.060Z,62.84
2023-04-16T08:58:09.257Z,62.97
2023-04-16T08:59:09.729Z,62.39
2023-04-16T09:00:09.698Z,62.36
2023-04-16T09:01:09.928Z,62.05
2023-04-16T09:02:10.193Z,61.71
2023-04-16T09:03:10.341Z,61.65
2023-04-16T09:04:10.888Z,61.42
2023-04-16T09:05:10.477Z,60.91
2023-04-16T09:06:10.438Z,60.90
2023-04-16T09:07:10.376Z,61.18
2023-04-16T09:08:10.367Z,61.24
2023-04-16T09:09:10.868Z,61.43
2023-04-16T09:10:10.861Z,61.43
2023-04-16T09:11:11.155Z,61.42
2023-04-16T09:12:11.363Z,60.78
2023-04-16T09:13:11.558Z,60.90
2023-04-16T09:14:11.739Z,60.56
2023-04-16T09:15:12.045Z,60.72
2023-04-16T09:16:12.237Z,61.20
2023-04-16T09:17:12.486Z,61.01
2023-04-16T09:18:12.663Z,60.83
2023-04-16T09:19:12.831Z,60.76
2023-04-16T09:20:13.142Z,60.27
2023-04-16T09:21:13.327Z,59.76
2023-04-16T09:22:13.510Z,59.69
2023-04-16T09:23:13.711Z,59.88
2023-04-16T09:24:13.890Z,59.80
2023-04-16T09:25:14.127Z,60.21
2023-04-16T09:26:14.361Z,60.43
2023-04-16T09:27:14.535Z,60.09
2023-04-16T09:28:14.786Z,59.97
2023-04-16T09:29:14.954Z,59.97
2023-04-16T09:30:15.167Z,59.97
2023-04-16T09:31:15.369Z,59.66
2023-04-16T09:32:15.629Z,60.00
2023-04-16T09:33:15.778Z,59.55
2023-04-16T09:34:15.939Z,60.09
2023-04-16T09:35:16.138Z,59.73
2023-04-16T09:36:16.349Z,59.11
2023-04-16T09:37:16.568Z,59.14
2023-04-16T09:38:16.745Z,58.06
2023-04-16T09:39:16.969Z,58.42
2023-04-16T09:40:17.156Z,58.41
2023-04-16T09:41:17.388Z,58.38
2023-04-16T09:42:17.597Z,58.36
2023-04-16T09:43:17.785Z,58.66
2023-04-16T09:44:18.062Z,58.73
2023-04-16T09:45:18.244Z,58.67
2023-04-16T09:46:18.499Z,59.12
2023-04-16T09:47:18.670Z,59.95
2023-04-16T09:48:18.790Z,59.70
2023-04-16T09:49:19.040Z,59.34
2023-04-16T09:50:19.205Z,59.28
2023-04-16T09:51:19.401Z,59.28
2023-04-16T09:52:19.554Z,59.20
2023-04-16T09:53:19.747Z,59.17
2023-04-16T09:54:19.918Z,58.59
2023-04-16T09:55:20.113Z,58.67
2023-04-16T09:56:20.319Z,59.46
2023-04-16T09:57:20.609Z,59.47
2023-04-16T09:58:20.768Z,58.89
2023-04-16T09:59:20.927Z,58.90
2023-04-16T10:00:21.090Z,58.96
2023-04-16T10:01:21.314Z,58.94
2023-04-16T10:02:21.524Z,59.09
2023-04-16T10:03:21.813Z,58.99
2023-04-16T10:04:21.948Z,58.94
2023-04-16T10:05:22.069Z,59.06
2023-04-16T10:06:22.368Z,58.95
2023-04-16T10:07:22.511Z,58.97
2023-04-16T10:08:22.704Z,58.95
2023-04-16T10:09:22.985Z,58.56
2023-04-16T10:10:23.121Z,58.52
2023-04-16T10:11:23.401Z,58.25
2023-04-16T10:12:23.534Z,58.00
2023-04-16T10:13:23.757Z,58.05
2023-04-16T10:14:23.989Z,58.03
2023-04-16T10:15:24.140Z,57.86
2023-04-16T10:16:24.350Z,57.23
2023-04-16T10:17:24.658Z,57.50
2023-04-16T10:18:24.806Z,57.76
2023-04-16T10:19:24.972Z,57.72
2023-04-16T10:20:25.132Z,57.74
2023-04-16T10:21:25.385Z,58.04
2023-04-16T10:22:25.532Z,58.27
2023-04-16T10:23:25.694Z,57.94
2023-04-16T10:24:25.847Z,57.91
2023-04-16T10:25:26.048Z,58.22
2023-04-16T10:26:26.266Z,58.15
2023-04-16T10:27:26.463Z,57.85
2023-04-16T10:28:26.645Z,57.48
2023-04-16T10:29:26.817Z,57.90
2023-04-16T10:30:26.977Z,58.09
2023-04-16T10:31:27.186Z,58.20
2023-04-16T10:32:27.399Z,58.45
2023-04-16T10:33:27.528Z,58.88
2023-04-16T10:34:27.690Z,58.59
2023-04-16T10:35:27.898Z,58.35
2023-04-16T10:36:28.107Z,58.09
2023-04-16T10:37:28.292Z,58.07
2023-04-16T10:38:28.579Z,58.39
2023-04-16T10:39:28.749Z,58.08
2023-04-16T10:40:28.858Z,58.42
2023-04-16T10:41:29.051Z,58.58
2023-04-16T10:42:29.349Z,58.50
2023-04-16T10:43:29.547Z,58.26
2023-04-16T10:44:29.754Z,58.55
2023-04-16T10:45:29.894Z,57.68
2023-04-16T10:46:30.129Z,57.24
2023-04-16T10:47:30.334Z,57.16
2023-04-16T10:48:38.712Z,57.36
2023-04-16T10:49:31.403Z,57.59
2023-04-16T10:50:30.319Z,58.14
2023-04-16T10:51:30.253Z,57.91
2023-04-16T10:52:30.163Z,57.91
2023-04-16T10:53:30.126Z,58.56
2023-04-16T10:54:29.966Z,58.41
2023-04-16T10:55:29.903Z,57.60
2023-04-16T10:56:29.811Z,57.31
2023-04-16T10:57:29.728Z,56.63
2023-04-16T10:58:29.667Z,55.90
2023-04-16T10:59:29.634Z,56.41
2023-04-16T11:00:29.625Z,56.98
2023-04-16T11:01:29.662Z,56.26
2023-04-16T11:02:29.774Z,56.43
2023-04-16T11:03:29.613Z,56.25
2023-04-16T11:04:29.572Z,56.10
2023-04-16T11:05:29.455Z,55.75
2023-04-16T11:06:29.433Z,56.01
2023-04-16T11:07:29.418Z,55.27
2023-04-16T11:08:29.395Z,55.27
2023-04-16T11:09:29.337Z,55.58
2023-04-16T11:10:29.298Z,55.82
2023-04-16T11:11:29.263Z,55.66
2023-04-16T11:12:29.267Z,55.78
2023-04-16T11:13:29.189Z,56.12
2023-04-16T11:14:29.142Z,56.52
2023-04-16T11:15:29.112Z,56.03
2023-04-16T11:16:29.079Z,55.11
2023-04-16T11:17:29.086Z,55.07
2023-04-16T11:18:29.020Z,55.57
2023-04-16T11:19:28.991Z,55.81
2023-04-16T11:20:28.972Z,55.69
2023-04-16T11:21:29.054Z,55.32
2023-04-16T11:22:29.296Z,54.40
2023-04-16T11:23:29.505Z,54.61
2023-04-16T11:24:29.676Z,55.42
2023-04-16T11:25:29.924Z,55.75
2023-04-16T11:26:30.119Z,55.23
2023-04-16T11:27:30.770Z,54.61
2023-04-16T11:28:30.218Z,54.30
2023-04-16T11:29:30.181Z,54.64
2023-04-16T11:30:30.150Z,53.98
2023-04-16T11:31:30.829Z,54.32
2023-04-16T11:32:30.125Z,52.89
2023-04-16T11:33:30.804Z,52.90
2023-04-16T11:34:30.020Z,54.09
2023-04-16T11:35:29.955Z,53.91
2023-04-16T11:36:29.901Z,53.71
2023-04-16T11:37:29.847Z,53.52
2023-04-16T11:38:29.783Z,52.95
2023-04-16T11:39:29.797Z,52.99
2023-04-16T11:40:29.998Z,52.92
2023-04-16T11:41:30.271Z,53.01
2023-04-16T11:42:30.492Z,53.08
2023-04-16T11:43:30.734Z,53.12
2023-04-16T11:44:30.906Z,53.05
2023-04-16T11:45:31.191Z,52.03
2023-04-16T11:46:31.389Z,52.39
2023-04-16T11:47:31.718Z,52.57
2023-04-16T11:48:31.464Z,51.89
2023-04-16T11:49:31.404Z,52.01
2023-04-16T11:50:31.355Z,51.81
2023-04-16T11:51:31.297Z,52.11
2023-04-16T11:52:31.256Z,52.09
2023-04-16T11:53:31.171Z,52.61
2023-04-16T11:54:31.093Z,52.93
2023-04-16T11:55:31.152Z,52.42
2023-04-16T11:56:31.339Z,51.92
2023-04-16T11:57:31.529Z,52.22
2023-04-16T11:58:31.676Z,52.82
2023-04-16T11:59:31.894Z,53.03
2023-04-16T12:00:32.069Z,52.79
2023-04-16T12:01:32.236Z,52.67
2023-04-16T12:02:32.514Z,52.69
2023-04-16T12:03:32.804Z,51.51
2023-04-16T12:04:32.800Z,51.25
2023-04-16T12:05:32.911Z,50.99
2023-04-16T12:06:33.103Z,50.72
2023-04-16T12:07:34.280Z,50.87
2023-04-16T12:08:33.280Z,50.85
2023-04-16T12:09:33.203Z,50.97
2023-04-16T12:10:33.123Z,51.03
2023-04-16T12:11:33.030Z,50.78
2023-04-16T12:12:32.968Z,51.11
2023-04-16T12:13:32.907Z,50.77
2023-04-16T12:14:32.842Z,50.75
2023-04-16T12:15:32.828Z,50.67
2023-04-16T12:16:34.640Z,50.86
2023-04-16T12:17:33.197Z,50.85
2023-04-16T12:18:33.080Z,51.09
2023-04-16T12:19:32.996Z,51.25
2023-04-16T12:20:32.912Z,51.07
2023-04-16T12:21:33.818Z,50.64
2023-04-16T12:22:33.632Z,50.32
2023-04-16T12:23:32.756Z,50.51
2023-04-16T12:24:32.669Z,50.70
2023-04-16T12:25:32.612Z,51.19
2023-04-16T12:26:32.807Z,50.23
2023-04-16T12:27:33.233Z,49.57
2023-04-16T12:28:33.206Z,50.31
2023-04-16T12:29:33.366Z,50.69
2023-04-16T12:30:33.657Z,50.24
2023-04-16T12:31:33.706Z,50.81
2023-04-16T12:32:33.902Z,50.25
2023-04-16T12:33:34.145Z,50.04
2023-04-16T12:34:48.404Z,49.95
2023-04-16T12:35:35.207Z,49.51
2023-04-16T12:36:34.055Z,49.42
2023-04-16T12:37:33.984Z,49.45
2023-04-16T12:38:33.876Z,49.74
2023-04-16T12:39:33.770Z,50.38
2023-04-16T12:40:33.685Z,50.79
2023-04-16T12:41:33.604Z,50.49
2023-04-16T12:42:33.500Z,49.57
2023-04-16T12:43:33.414Z,49.70
2023-04-16T12:44:33.312Z,50.77
2023-04-16T12:45:33.242Z,50.48
2023-04-16T12:46:33.189Z,50.28
2023-04-16T12:47:33.161Z,50.19
2023-04-16T12:48:32.958Z,50.46
2023-04-16T12:49:32.869Z,50.51
2023-04-16T12:50:32.790Z,50.13
2023-04-16T12:51:32.665Z,49.74
2023-04-16T12:52:32.555Z,49.44
2023-04-16T12:53:32.457Z,48.61
2023-04-16T12:54:32.364Z,48.71